Time;durP1;ratioP1;P1;durP2;ratioP2;P2;SDS_P1;SDS_P2;PMS_P1;PMS_P2;Temp;Humidity;BMP_temperature;BMP_pressure;BME280_temperature;BME280_humidity;BME280_pressure;Samples;Min_cycle;Max_cycle;Signal;HPM_P1;HPM_P2
2023/10/03 00:00:34;;;;;;;6.53;3.17;;;;;;;24.88;40.12;100479.75;4483507;32;34462;-66
2023/10/03 00:03:07;;;;;;;7.40;3.03;;;;;;;24.87;40.21;100475.34;4483670;32;33969;-67
2023/10/03 00:05:36;;;;;;;10.40;3.40;;;;;;;24.87;40.18;100474.50;4483661;32;34685;-66
2023/10/03 00:08:04;;;;;;;6.90;3.22;;;;;;;24.90;40.17;100471.31;4483410;32;34141;-66
2023/10/03 00:10:33;;;;;;;6.55;3.10;;;;;;;24.87;40.12;100475.34;4483588;32;33874;-66
2023/10/03 00:13:00;;;;;;;6.65;3.03;;;;;;;24.87;40.12;100475.34;4456879;32;33424;-66
2023/10/03 00:15:28;;;;;;;5.55;3.05;;;;;;;24.89;40.10;100475.13;4483360;32;34668;-67
2023/10/03 00:17:56;;;;;;;9.40;3.25;;;;;;;24.84;40.16;100473.06;4483497;32;33609;-67
2023/10/03 00:20:23;;;;;;;6.93;3.53;;;;;;;24.84;40.18;100469.50;4469159;32;33411;-66
2023/10/03 00:22:52;;;;;;;6.22;3.20;;;;;;;24.82;40.12;100471.63;4469317;32;34717;-66
2023/10/03 00:25:21;;;;;;;6.90;3.30;;;;;;;24.82;40.18;100463.44;4483675;32;33924;-68
2023/10/03 00:27:52;;;;;;;10.07;3.35;;;;;;;24.80;40.25;100469.09;4469282;32;34048;-66
2023/10/03 00:30:21;;;;;;;7.37;3.25;;;;;;;24.80;40.23;100462.78;4469561;32;33813;-66
2023/10/03 00:32:48;;;;;;;7.80;3.37;;;;;;;24.77;40.32;100458.63;4469099;32;34779;-66
2023/10/03 00:35:17;;;;;;;6.53;2.90;;;;;;;24.78;40.25;100449.38;4484432;32;34371;-70
2023/10/03 00:37:46;;;;;;;5.47;2.85;;;;;;;24.77;40.20;100452.34;4471014;32;34319;-68
2023/10/03 00:42:54;;;;;;;6.10;3.10;;;;;;;24.75;40.10;100444.34;4471971;32;34761;-67
2023/10/03 00:45:22;;;;;;;6.65;3.37;;;;;;;24.75;40.11;100440.78;4471162;32;33794;-68
2023/10/03 00:47:50;;;;;;;6.37;3.40;;;;;;;24.75;40.01;100440.78;4484879;32;34144;-68
2023/10/03 00:50:20;;;;;;;5.80;2.92;;;;;;;24.73;40.07;100432.81;4485148;32;34628;-67
2023/10/03 00:52:50;;;;;;;7.03;3.37;;;;;;;24.75;40.17;100438.06;4485032;32;33986;-67
2023/10/03 00:55:18;;;;;;;6.70;3.08;;;;;;;24.77;40.17;100435.97;4458702;32;34548;-67
2023/10/03 00:57:46;;;;;;;6.53;3.25;;;;;;;24.76;40.14;100434.25;4458054;32;32848;-70
2023/10/03 01:00:17;;;;;;;7.55;3.28;;;;;;;24.74;40.19;100439.12;4470825;32;33590;-67
2023/10/03 01:02:46;;;;;;;6.57;3.30;;;;;;;24.73;40.17;100427.37;4471188;32;34393;-68
2023/10/03 01:05:16;;;;;;;5.40;3.20;;;;;;;24.75;40.11;100432.59;4470735;32;34043;-66
2023/10/03 01:07:44;;;;;;;5.90;2.97;;;;;;;24.73;40.08;100424.63;4484995;32;33576;-67
2023/10/03 01:10:18;;;;;;;6.03;3.10;;;;;;;24.75;40.06;100425.25;4484969;32;33758;-66
2023/10/03 01:12:46;;;;;;;7.15;3.35;;;;;;;24.74;39.98;100422.75;4471394;32;33772;-66
2023/10/03 01:15:22;;;;;;;7.90;2.87;;;;;;;24.73;40.07;100415.63;4470726;32;34649;-69
2023/10/03 01:17:53;;;;;;;6.93;3.40;;;;;;;24.71;40.03;100415.81;4471575;32;34249;-66
2023/10/03 01:20:28;;;;;;;5.78;3.08;;;;;;;24.73;40.05;100412.88;4484784;32;34782;-68
2023/10/03 01:22:56;;;;;;;5.05;2.75;;;;;;;24.72;39.95;100405.75;4484762;32;33899;-66
2023/10/03 01:25:27;;;;;;;8.32;3.20;;;;;;;24.70;39.88;100411.41;4484880;32;33720;-67
2023/10/03 01:27:56;;;;;;;6.93;3.30;;;;;;;24.69;39.98;100412.50;4484725;32;33473;-67
2023/10/03 01:30:24;;;;;;;5.55;2.92;;;;;;;24.69;39.88;100410.59;4470424;32;32370;-68
2023/10/03 01:32:54;;;;;;;5.35;2.85;;;;;;;24.69;39.93;100410.59;4484781;32;33851;-66
2023/10/03 01:35:22;;;;;;;7.35;3.17;;;;;;;24.69;39.98;100409.75;4470528;32;33697;-66
2023/10/03 01:37:50;;;;;;;6.87;3.40;;;;;;;24.69;39.89;100407.88;4484795;32;34040;-67
2023/10/03 01:40:19;;;;;;;6.30;3.15;;;;;;;24.69;39.82;100412.50;4470452;32;32970;-67
2023/10/03 01:42:47;;;;;;;8.35;3.40;;;;;;;24.69;39.98;100407.88;4484632;32;34743;-67
2023/10/03 01:45:27;;;;;;;5.75;3.05;;;;;;;24.68;39.86;100402.63;4470140;32;33586;-66
2023/10/03 01:47:58;;;;;;;5.18;2.58;;;;;;;24.69;39.91;100390.66;4470194;32;32998;-66
2023/10/03 01:50:28;;;;;;;7.72;3.53;;;;;;;24.67;39.75;100404.53;4470466;32;32864;-66
2023/10/03 01:52:56;;;;;;;5.95;3.03;;;;;;;24.67;39.71;100400.97;4484904;32;33998;-66
2023/10/03 01:55:23;;;;;;;6.55;2.78;;;;;;;24.67;39.78;100406.44;4484435;32;34019;-67
2023/10/03 01:57:52;;;;;;;5.87;3.08;;;;;;;24.66;39.71;100402.00;4484636;32;33528;-66
2023/10/03 02:00:25;;;;;;;6.12;3.30;;;;;;;24.65;39.70;100403.91;4484883;32;34707;-67
2023/10/03 02:02:54;;;;;;;6.97;3.22;;;;;;;24.65;39.78;100405.78;4484579;32;33669;-67
2023/10/03 02:05:23;;;;;;;6.37;2.95;;;;;;;24.64;39.73;100402.22;4470866;32;33748;-66
2023/10/03 02:07:52;;;;;;;9.57;3.08;;;;;;;24.65;39.80;100389.41;4484449;32;34044;-66
2023/10/03 02:10:20;;;;;;;7.10;3.45;;;;;;;24.64;39.77;100387.75;4470533;32;34646;-66
2023/10/03 02:12:50;;;;;;;6.12;3.08;;;;;;;24.66;39.68;100383.72;4457329;32;32861;-66
2023/10/03 02:15:26;;;;;;;7.15;3.33;;;;;;;24.63;39.77;100381.47;4470685;32;33585;-66
2023/10/03 02:17:55;;;;;;;5.68;2.85;;;;;;;24.65;39.75;100383.97;4471250;32;34147;-65
2023/10/03 02:20:25;;;;;;;5.32;3.10;;;;;;;24.63;39.63;100375.19;4457529;32;33439;-67
2023/10/03 02:22:56;;;;;;;7.55;3.20;;;;;;;24.64;39.69;100376.84;4458122;32;34035;-68
2023/10/03 02:25:25;;;;;;;5.55;2.60;;;;;;;24.64;39.73;100377.69;4484615;32;33414;-67
2023/10/03 02:27:56;;;;;;;7.65;3.15;;;;;;;24.63;39.65;100376.00;4457415;32;32718;-68
2023/10/03 02:30:27;;;;;;;5.78;3.12;;;;;;;24.63;39.50;100375.19;4484567;32;34018;-67
2023/10/03 02:33:04;;;;;;;5.90;3.10;;;;;;;24.63;39.61;100375.19;4457839;32;34677;-67
2023/10/03 02:35:32;;;;;;;5.45;2.90;;;;;;;24.61;39.61;100369.91;4471093;32;33369;-67
2023/10/03 02:38:03;;;;;;;7.75;3.45;;;;;;;24.63;39.80;100372.44;4484394;32;33519;-68
2023/10/03 02:40:32;;;;;;;7.60;3.15;;;;;;;24.61;39.75;100366.34;4484162;32;33950;-69
2023/10/03 02:43:00;;;;;;;6.43;3.30;;;;;;;24.65;39.59;100373.03;4484408;32;34012;-67
2023/10/03 02:45:28;;;;;;;6.30;3.20;;;;;;;24.68;39.67;100372.63;4484485;32;33887;-68
2023/10/03 02:47:58;;;;;;;6.43;2.83;;;;;;;24.69;39.65;100369.66;4457369;32;34256;-68
2023/10/03 02:50:27;;;;;;;9.32;3.83;;;;;;;24.69;39.62;100361.47;4470375;32;33083;-67
2023/10/03 02:52:59;;;;;;;7.05;3.03;;;;;;;24.67;39.52;100358.13;4484208;32;33696;-67
2023/10/03 02:55:27;;;;;;;6.07;3.10;;;;;;;24.70;39.59;100365.03;4470647;32;34042;-66
2023/10/03 02:57:54;;;;;;;6.22;3.33;;;;;;;24.67;39.50;100362.75;4484032;32;33828;-67
2023/10/03 03:00:22;;;;;;;8.88;3.87;;;;;;;24.68;39.55;100362.53;4470012;32;33744;-67
2023/10/03 03:02:50;;;;;;;6.43;3.20;;;;;;;24.69;39.52;100361.47;4484291;32;34504;-67
2023/10/03 03:05:22;;;;;;;9.02;3.45;;;;;;;24.67;39.45;100369.06;4484408;32;34464;-66
2023/10/03 03:07:58;;;;;;;5.43;2.75;;;;;;;24.64;39.48;100364.03;4470728;32;34077;-67
2023/10/03 03:10:28;;;;;;;6.32;3.12;;;;;;;24.64;39.48;100361.31;4484131;32;33437;-67
2023/10/03 03:12:55;;;;;;;7.18;3.40;;;;;;;24.62;39.48;100357.97;4457275;32;33627;-67
2023/10/03 03:15:26;;;;;;;6.00;3.10;;;;;;;24.63;39.62;100356.91;4484090;32;34162;-66
2023/10/03 03:17:54;;;;;;;5.93;3.08;;;;;;;24.61;39.57;100352.72;4484189;32;33803;-67
2023/10/03 03:20:26;;;;;;;8.75;3.35;;;;;;;24.61;39.49;100352.72;4469701;32;33686;-66
2023/10/03 03:22:59;;;;;;;6.80;3.40;;;;;;;24.59;39.50;100346.66;4484136;32;33479;-67
2023/10/03 03:25:37;;;;;;;7.93;3.28;;;;;;;24.59;39.58;100344.75;4470579;32;33943;-67
2023/10/03 03:28:12;;;;;;;7.07;3.58;;;;;;;24.60;39.61;100345.59;4483994;32;33933;-66
2023/10/03 03:30:47;;;;;;;6.90;2.95;;;;;;;24.58;39.54;100342.25;4470945;32;33963;-68
2023/10/03 03:33:20;;;;;;;6.75;2.92;;;;;;;24.58;39.55;100351.28;4483794;32;33976;-67
2023/10/03 03:35:48;;;;;;;6.43;3.42;;;;;;;24.57;39.37;100346.84;4483908;32;34745;-67
2023/10/03 03:38:20;;;;;;;6.03;3.03;;;;;;;24.57;39.39;100348.75;4483976;32;33423;-66
2023/10/03 03:40:56;;;;;;;6.75;3.50;;;;;;;24.57;39.51;100343.28;4470160;32;33918;-68
2023/10/03 03:43:24;;;;;;;5.82;2.95;;;;;;;24.57;39.48;100340.56;4484001;32;33814;-66
2023/10/03 03:45:52;;;;;;;6.28;3.22;;;;;;;24.57;39.56;100344.12;4483677;32;34466;-67
2023/10/03 03:48:22;;;;;;;6.45;3.58;;;;;;;24.57;39.60;100337.84;4469537;32;33159;-67
2023/10/03 03:50:50;;;;;;;7.90;3.35;;;;;;;24.57;39.60;100333.22;4483857;32;33696;-67
2023/10/03 03:53:19;;;;;;;7.35;3.17;;;;;;;24.56;39.44;100331.56;4469857;32;34360;-68
2023/10/03 03:55:49;;;;;;;6.47;3.20;;;;;;;24.57;39.45;100333.22;4456619;32;33062;-68
2023/10/03 03:58:18;;;;;;;;;;;;;;;24.57;39.51;100335.09;4484001;32;33440;-67
2023/10/03 04:00:52;;;;;;;11.27;3.37;;;;;;;24.65;39.28;100334.84;4483701;32;34213;-68
2023/10/03 04:03:20;;;;;;;7.95;3.30;;;;;;;24.58;39.11;100332.19;4470349;32;34016;-68
2023/10/03 04:05:50;;;;;;;8.00;3.70;;;;;;;24.54;39.40;100330.94;4483365;32;34584;-68
2023/10/03 04:08:20;;;;;;;10.52;3.53;;;;;;;24.52;39.48;100333.03;4456186;32;31907;-68
2023/10/03 04:10:47;;;;;;;7.82;3.70;;;;;;;24.55;39.36;100329.88;4483496;32;34109;-70
2023/10/03 04:13:17;;;;;;;6.32;3.20;;;;;;;24.55;39.28;100331.78;4469336;32;33630;-69
2023/10/03 04:15:50;;;;;;;7.75;3.30;;;;;;;24.54;39.42;100327.38;4469955;32;33837;-67
2023/10/03 04:18:18;;;;;;;8.07;3.50;;;;;;;24.53;39.33;100321.09;4469226;32;33541;-69
2023/10/03 04:20:46;;;;;;;7.10;2.90;;;;;;;24.53;39.36;100320.25;4481361;32;34166;-67
2023/10/03 04:23:14;;;;;;;9.27;3.60;;;;;;;24.54;39.26;100327.38;4467506;32;34487;-68
2023/10/03 04:25:42;;;;;;;7.15;3.35;;;;;;;24.52;39.22;100327.59;4469001;32;34076;-69
2023/10/03 04:28:11;;;;;;;5.45;2.97;;;;;;;24.53;39.40;100332.00;4468777;32;34244;-68
2023/10/03 04:30:41;;;;;;;10.15;3.12;;;;;;;24.52;39.35;100329.47;4483267;32;33622;-77
2023/10/03 04:33:08;;;;;;;10.87;3.83;;;;;;;24.54;39.35;100319.22;4482983;32;33929;-76
2023/10/03 04:35:36;;;;;;;8.75;3.42;;;;;;;24.54;39.40;100325.50;4469175;32;33527;-76
2023/10/03 04:38:04;;;;;;;7.85;3.08;;;;;;;24.54;39.45;100321.94;4469156;32;33162;-76
2023/10/03 04:40:34;;;;;;;9.82;3.20;;;;;;;24.54;39.42;100321.94;4483087;32;33969;-72
2023/10/03 04:43:10;;;;;;;7.37;3.30;;;;;;;24.53;39.44;100329.28;4483246;32;34456;-74
2023/10/03 04:45:39;;;;;;;9.63;3.03;;;;;;;24.53;39.45;100322.97;4470038;32;35295;-77
2023/10/03 04:48:07;;;;;;;6.80;3.03;;;;;;;24.54;39.43;100330.12;4468878;32;33362;-75
2023/10/03 04:50:35;;;;;;;7.60;3.40;;;;;;;24.53;39.46;100322.97;4483039;32;33922;-76
2023/10/03 04:53:05;;;;;;;8.55;3.15;;;;;;;24.53;39.49;100322.97;4469046;32;33574;-76
2023/10/03 04:55:33;;;;;;;11.40;3.50;;;;;;;24.54;39.45;100324.66;4482961;32;34458;-72
2023/10/03 04:58:01;;;;;;;9.85;2.97;;;;;;;24.53;39.45;100321.09;4468631;32;34196;-77
2023/10/03 05:00:30;;;;;;;8.95;3.75;;;;;;;24.52;39.44;100322.13;4455667;32;33914;-76
2023/10/03 05:02:58;;;;;;;8.73;3.20;;;;;;;24.53;39.43;100325.69;4481947;32;33892;-72
2023/10/03 05:05:26;;;;;;;9.38;3.40;;;;;;;24.53;39.43;100322.97;4463525;32;33780;-76
2023/10/03 05:07:58;;;;;;;7.25;3.55;;;;;;;24.53;39.43;100320.25;4450816;32;33777;-75
2023/10/03 05:10:29;;;;;;;6.82;2.85;;;;;;;24.51;39.42;100316.91;4452012;32;32783;-69
2023/10/03 05:12:59;;;;;;;6.75;3.03;;;;;;;24.52;39.42;100313.12;4452549;32;33556;-74
2023/10/03 05:15:27;;;;;;;7.20;3.10;;;;;;;24.52;39.40;100318.56;4452322;32;34708;-75
2023/10/03 05:17:56;;;;;;;6.65;3.60;;;;;;;24.53;39.38;100322.97;4466271;32;33606;-73
2023/10/03 05:20:42;;;;;;;6.87;3.53;;;;;;;24.52;39.42;100319.41;4471958;32;33651;-74
2023/10/03 05:23:14;;;;;;;6.07;3.28;;;;;;;24.52;39.40;100324.03;4481785;32;34536;-73
2023/10/03 05:25:43;;;;;;;6.22;3.08;;;;;;;24.51;39.40;100325.94;4466819;32;33812;-70
2023/10/03 05:28:11;;;;;;;6.07;2.90;;;;;;;24.50;39.45;100324.25;4484284;32;34074;-73
2023/10/03 05:30:39;;;;;;;8.18;3.65;;;;;;;24.54;39.36;100330.12;4484753;32;33443;-69
2023/10/03 05:33:08;;;;;;;8.13;3.30;;;;;;;24.55;39.32;100339.97;4470367;32;33976;-68
2023/10/03 05:35:36;;;;;;;8.32;3.55;;;;;;;24.57;39.25;100330.47;4485124;32;33905;-72
2023/10/03 05:38:10;;;;;;;8.07;3.17;;;;;;;24.57;39.27;100330.47;4471099;32;33373;-70
2023/10/03 05:40:39;;;;;;;7.40;3.65;;;;;;;24.56;39.29;100326.09;4470654;32;33540;-75
2023/10/03 05:43:07;;;;;;;8.93;3.90;;;;;;;24.58;39.27;100334.06;4484701;32;33892;-69
2023/10/03 05:45:35;;;;;;;6.80;3.22;;;;;;;24.58;39.22;100326.72;4485013;32;33807;-66
2023/10/03 05:48:04;;;;;;;9.73;3.47;;;;;;;24.58;39.24;100326.72;4470421;32;33154;-75
2023/10/03 05:50:34;;;;;;;7.00;3.53;;;;;;;24.58;39.21;100329.44;4457773;32;33766;-69
2023/10/03 05:53:06;;;;;;;12.30;3.25;;;;;;;24.57;39.21;100330.47;4484528;32;34021;-73
2023/10/03 05:55:34;;;;;;;8.38;3.28;;;;;;;24.57;39.21;100330.47;4470975;32;33810;-71
2023/10/03 05:58:03;;;;;;;8.38;3.33;;;;;;;24.57;39.25;100333.22;4457611;32;33422;-67
2023/10/03 06:00:31;;;;;;;8.18;3.37;;;;;;;24.57;39.22;100337.84;4484484;32;33938;-75
2023/10/03 06:02:59;;;;;;;7.10;3.50;;;;;;;24.56;39.22;100341.63;4484660;32;34642;-69
2023/10/03 06:05:29;;;;;;;8.57;3.37;;;;;;;24.56;39.23;100342.47;4484308;32;34144;-70
2023/10/03 06:07:57;;;;;;;6.95;3.35;;;;;;;24.57;39.22;100340.56;4470675;32;33574;-75
2023/10/03 06:10:25;;;;;;;7.72;3.50;;;;;;;24.57;39.20;100341.41;4484630;32;33620;-75
2023/10/03 06:12:54;;;;;;;7.87;3.42;;;;;;;24.57;39.19;100348.75;4470375;32;33645;-76
2023/10/03 06:15:23;;;;;;;8.68;4.12;;;;;;;24.56;39.20;100341.63;4470506;32;33816;-76
2023/10/03 06:17:52;;;;;;;9.45;3.50;;;;;;;24.57;39.15;100344.12;4484575;32;32927;-75
2023/10/03 06:20:20;;;;;;;8.65;3.87;;;;;;;24.55;39.17;100343.53;4484449;32;33845;-67
2023/10/03 06:22:48;;;;;;;10.30;4.05;;;;;;;24.54;39.15;100347.31;4484429;32;34584;-74
2023/10/03 06:25:16;;;;;;;7.32;3.50;;;;;;;24.52;39.17;100346.69;4484426;32;34513;-73
2023/10/03 06:27:43;;;;;;;7.57;3.67;;;;;;;24.52;39.16;100343.97;4484558;32;33469;-72
2023/10/03 06:30:11;;;;;;;7.15;3.58;;;;;;;24.53;39.16;100352.97;4484340;32;33595;-69
2023/10/03 06:32:39;;;;;;;8.02;3.87;;;;;;;24.49;39.23;100343.59;4483758;32;34130;-76
2023/10/03 06:35:09;;;;;;;8.98;4.05;;;;;;;24.47;39.27;100349.25;4470251;32;34597;-73
2023/10/03 06:37:40;;;;;;;10.73;4.50;;;;;;;24.45;39.31;100345.06;4470272;32;34049;-75
2023/10/03 06:40:08;;;;;;;7.15;4.15;;;;;;;24.45;39.29;100345.06;4484404;32;33670;-73
2023/10/03 06:42:36;;;;;;;9.40;4.20;;;;;;;24.42;39.31;100351.78;4469977;32;34021;-75
2023/10/03 06:45:05;;;;;;;9.52;4.18;;;;;;;24.42;39.30;100352.63;4484323;32;33935;-71
2023/10/03 06:47:34;;;;;;;8.20;3.60;;;;;;;24.42;39.30;100349.91;4457486;32;33334;-70
2023/10/03 06:50:05;;;;;;;7.55;3.85;;;;;;;24.43;39.31;100348.00;4484152;32;34621;-73
2023/10/03 06:52:34;;;;;;;8.02;3.90;;;;;;;24.43;39.22;100348.00;4484258;32;34740;-68
2023/10/03 06:55:04;;;;;;;8.70;3.92;;;;;;;24.43;39.31;100354.31;4470097;32;34753;-69
2023/10/03 06:57:36;;;;;;;13.05;4.43;;;;;;;24.42;39.35;100349.91;4484356;32;34284;-69
2023/10/03 07:00:05;;;;;;;9.13;3.92;;;;;;;24.41;39.32;100350.97;4470651;32;34003;-70
2023/10/03 07:02:33;;;;;;;7.32;3.42;;;;;;;24.40;39.36;100346.56;4469914;32;33871;-67
2023/10/03 07:05:01;;;;;;;7.35;3.78;;;;;;;24.41;39.36;100341.94;4444503;32;34569;-72
2023/10/03 07:07:29;;;;;;;8.10;4.28;;;;;;;24.40;39.37;100345.75;4480886;31;33043;-68
2023/10/03 07:09:57;;;;;;;10.55;4.32;;;;;;;24.41;39.37;100342.78;4475741;31;34086;-77
2023/10/03 07:12:25;;;;;;;10.45;4.25;;;;;;;24.40;39.39;100349.31;4455048;32;33857;-77
2023/10/03 07:14:53;;;;;;;8.82;4.18;;;;;;;24.43;39.33;100348.87;4441814;32;33422;-77
2023/10/03 07:17:20;;;;;;;8.65;3.90;;;;;;;24.47;39.28;100357.44;4468162;32;33664;-77
2023/10/03 07:19:48;;;;;;;10.13;4.00;;;;;;;24.47;39.30;100353.88;4468443;32;33926;-71
2023/10/03 07:22:19;;;;;;;7.20;3.75;;;;;;;24.49;39.28;100351.78;4468401;32;34650;-77
2023/10/03 07:24:46;;;;;;;;;;;;;;;24.46;39.31;100344.84;4433056;32;33297;-75
2023/10/03 07:27:15;;;;;;;8.50;3.90;;;;;;;24.54;39.22;100349.22;4445156;32;32181;-76
2023/10/03 07:29:44;;;;;;;10.02;4.47;;;;;;;24.46;39.30;100352.19;4470097;32;33888;-78
2023/10/03 07:32:12;;;;;;;10.77;4.60;;;;;;;24.43;39.36;100350.72;4483743;32;34901;-77
2023/10/03 07:34:45;;;;;;;8.60;4.25;;;;;;;24.43;39.41;100353.47;4483953;32;33849;-76
2023/10/03 07:37:17;;;;;;;9.32;4.47;;;;;;;24.41;39.43;100361.88;4458031;32;33337;-76
2023/10/03 07:39:45;;;;;;;9.32;4.62;;;;;;;24.42;39.44;100351.78;4484029;32;33786;-77
2023/10/03 07:42:14;;;;;;;10.85;4.22;;;;;;;24.42;39.47;100351.78;4469821;32;32871;-77
2023/10/03 07:44:43;;;;;;;6.32;3.60;;;;;;;24.42;39.47;100362.72;4482239;32;32994;-77
2023/10/03 07:47:14;;;;;;;11.75;4.57;;;;;;;24.42;39.45;100362.72;4483815;32;33822;-77
2023/10/03 07:49:42;;;;;;;10.10;4.32;;;;;;;24.42;39.47;100359.97;4483777;32;33844;-77
2023/10/03 07:52:10;;;;;;;10.32;4.65;;;;;;;24.41;39.51;100353.69;4483585;32;34493;-73
2023/10/03 07:54:38;;;;;;;11.52;4.72;;;;;;;24.41;39.48;100366.50;4483781;32;34480;-76
2023/10/03 07:57:05;;;;;;;10.65;5.05;;;;;;;24.42;39.52;100363.53;4483811;32;34175;-72
2023/10/03 07:59:34;;;;;;;12.15;4.65;;;;;;;24.42;39.51;100360.81;4465358;32;32739;-75
2023/10/03 08:02:05;;;;;;;12.25;4.32;;;;;;;24.42;39.52;100359.97;4466936;32;33990;-75
2023/10/03 08:04:33;;;;;;;11.05;4.90;;;;;;;24.43;39.52;100356.19;4474213;32;33942;-66
2023/10/03 08:07:04;;;;;;;10.93;4.62;;;;;;;24.42;39.53;100362.72;4481138;32;33456;-76
2023/10/03 08:09:33;;;;;;;11.15;4.70;;;;;;;24.43;39.54;100361.66;4469387;32;32900;-74
2023/10/03 08:12:11;;;;;;;12.85;5.03;;;;;;;24.44;39.56;100357.88;4476301;31;34439;-75
2023/10/03 08:14:40;;;;;;;13.62;4.37;;;;;;;24.44;39.54;100363.34;4477789;32;34597;-69
2023/10/03 08:17:11;;;;;;;11.50;4.93;;;;;;;24.43;39.57;100362.50;4457143;32;33671;-69
2023/10/03 08:19:42;;;;;;;9.55;4.68;;;;;;;24.42;39.59;100349.91;4483542;32;34454;-72
2023/10/03 08:22:12;;;;;;;12.27;4.95;;;;;;;24.44;39.62;100352.44;4483244;32;35129;-69
2023/10/03 08:24:43;;;;;;;9.38;4.62;;;;;;;24.43;39.64;100351.59;4478868;31;34506;-77
2023/10/03 08:27:19;;;;;;;10.30;4.72;;;;;;;24.44;39.65;100344.25;4484734;31;32261;-76
2023/10/03 08:29:57;;;;;;;10.35;4.55;;;;;;;24.43;39.68;100346.16;4499288;31;33554;-73
2023/10/03 08:32:25;;;;;;;11.73;4.85;;;;;;;24.43;39.75;100343.41;4481620;32;34140;-76
2023/10/03 08:34:53;;;;;;;8.75;4.82;;;;;;;24.45;39.75;100347.81;4483147;32;34543;-68
2023/10/03 08:37:21;;;;;;;11.70;4.95;;;;;;;24.45;39.79;100345.06;4465452;32;33521;-75
2023/10/03 08:39:50;;;;;;;12.20;5.32;;;;;;;24.45;39.80;100342.34;4465264;32;34425;-76
2023/10/03 08:42:52;;;;;;;12.05;5.25;;;;;;;24.45;39.80;100342.34;4469100;32;34371;-76
2023/10/03 08:45:22;;;;;;;13.85;5.07;;;;;;;24.47;39.83;100334.78;4471610;32;33654;-70
2023/10/03 08:47:50;;;;;;;8.57;4.50;;;;;;;24.46;39.82;100331.22;4482800;32;34101;-76
2023/10/03 08:50:35;;;;;;;9.32;4.62;;;;;;;24.46;39.86;100331.22;4430427;32;32879;-72
2023/10/03 08:55:49;;;;;;;11.93;5.32;;;;;;;24.46;39.89;100336.66;4461295;32;33736;-77
2023/10/03 08:58:18;;;;;;;10.32;5.12;;;;;;;24.46;39.92;100335.84;4485043;32;33082;-75
2023/10/03 09:00:47;;;;;;;9.43;5.53;;;;;;;24.44;39.98;100330.59;4471044;32;34695;-77
2023/10/03 09:03:19;;;;;;;9.37;5.13;;;;;;;24.45;39.99;100324.09;4469286;32;32922;-73
2023/10/03 09:05:47;;;;;;;10.90;5.40;;;;;;;24.46;40.01;100320.28;4470803;32;33874;-77
2023/10/03 09:08:16;;;;;;;12.43;4.97;;;;;;;24.46;40.03;100316.75;4443868;32;32650;-77
2023/10/03 09:10:55;;;;;;;10.65;4.95;;;;;;;24.45;40.05;100312.34;4457915;32;33965;-77
2023/10/03 09:13:27;;;;;;;11.05;5.53;;;;;;;24.46;40.03;100314.84;4460568;32;33970;-77
2023/10/03 09:15:59;;;;;;;15.23;5.93;;;;;;;24.46;40.06;100312.13;4470884;32;34626;-75
2023/10/03 09:18:40;;;;;;;13.77;5.22;;;;;;;24.48;40.10;100320.94;4458427;32;33528;-75
2023/10/03 09:21:23;;;;;;;9.02;5.05;;;;;;;24.47;40.12;100311.06;4484958;32;33866;-77
2023/10/03 09:24:01;;;;;;;11.05;5.25;;;;;;;24.48;40.06;100309.16;4472743;32;34029;-75
2023/10/03 09:26:45;;;;;;;11.48;5.25;;;;;;;24.48;40.10;100303.69;4471564;32;33990;-73
2023/10/03 09:29:29;;;;;;;12.90;5.20;;;;;;;24.50;40.16;100298.88;4458163;32;35156;-77
2023/10/03 09:31:59;;;;;;;14.20;5.87;;;;;;;24.47;40.14;100297.41;4460896;32;34414;-73
2023/10/03 09:34:30;;;;;;;9.82;5.37;;;;;;;24.48;40.16;100290.06;4470857;32;34857;-73
2023/10/03 09:37:02;;;;;;;9.43;5.30;;;;;;;24.49;40.07;100291.75;4471288;32;33787;-76
2023/10/03 09:39:39;;;;;;;11.43;4.72;;;;;;;24.48;40.17;100293.66;4476929;32;33298;-74
2023/10/03 09:42:15;;;;;;;12.30;5.35;;;;;;;24.49;40.20;100289.03;4453740;32;34592;-76
2023/10/03 09:44:43;;;;;;;11.68;5.05;;;;;;;24.48;40.19;100282.75;4448813;32;34684;-75
2023/10/03 09:47:12;;;;;;;14.65;5.15;;;;;;;24.48;40.18;100282.75;4467913;32;34544;-77
2023/10/03 09:49:40;;;;;;;10.70;5.35;;;;;;;24.49;40.19;100286.31;4455183;32;34101;-76
2023/10/03 09:52:27;;;;;;;10.18;5.05;;;;;;;24.50;40.21;100291.53;4475418;32;33900;-77
2023/10/03 09:54:59;;;;;;;12.85;5.43;;;;;;;24.51;40.19;100285.00;4446392;32;34432;-77
2023/10/03 09:57:32;;;;;;;9.73;5.32;;;;;;;24.51;40.17;100278.72;4484526;32;34562;-69
2023/10/03 10:00:00;;;;;;;9.95;5.30;;;;;;;24.51;40.18;100279.53;4479527;32;33120;-74
2023/10/03 10:02:31;;;;;;;10.02;4.70;;;;;;;24.51;40.19;100279.53;4455160;32;34368;-73
2023/10/03 10:05:03;;;;;;;9.35;5.35;;;;;;;24.53;40.20;100277.44;4462649;32;33930;-76
2023/10/03 10:07:49;;;;;;;12.20;5.00;;;;;;;24.52;40.23;100283.94;4452332;32;34789;-77
2023/10/03 10:10:20;;;;;;;11.95;5.07;;;;;;;24.54;40.23;100276.38;4444315;32;32288;-78
2023/10/03 10:13:13;;;;;;;9.93;5.30;;;;;;;24.53;40.20;100263.81;4473014;32;34763;-76
2023/10/03 10:16:00;;;;;;;12.77;4.72;;;;;;;24.57;40.23;100264.19;4455812;32;33561;-76
2023/10/03 10:18:46;;;;;;;9.60;5.53;;;;;;;24.55;40.29;100258.94;4467655;32;34096;-77
2023/10/03 10:21:25;;;;;;;9.85;5.22;;;;;;;24.56;40.37;100257.06;4467904;32;33546;-72
2023/10/03 10:24:20;;;;;;;11.25;4.68;;;;;;;24.54;40.41;100257.28;4465348;32;34821;-76
2023/10/03 10:26:55;;;;;;;9.63;5.28;;;;;;;24.55;40.41;100252.66;4454158;32;33517;-74
2023/10/03 10:29:24;;;;;;;14.32;5.40;;;;;;;24.56;40.51;100254.31;4450582;32;33898;-77
2023/10/03 10:31:58;;;;;;;;;;;;;;;24.56;40.53;100257.06;4467828;32;34201;-72
2023/10/03 10:34:27;;;;;;;11.75;5.20;;;;;;;24.67;40.29;100245.44;4468368;32;34123;-77
2023/10/03 10:37:09;;;;;;;9.52;4.72;;;;;;;24.61;40.38;100244.41;4481099;32;32054;-76
2023/10/03 10:42:55;;;;;;;9.00;4.37;;;;;;;24.61;40.41;100243.56;4477811;32;33370;-71
2023/10/03 10:45:23;;;;;;;;;;;;;;;24.62;40.36;100240.66;4465740;32;33710;-76
2023/10/03 10:47:51;;;;;;;9.70;4.65;;;;;;;24.69;40.17;100238.69;4474525;32;35089;-77
2023/10/03 10:50:21;;;;;;;9.75;5.20;;;;;;;24.62;40.24;100245.25;4455892;32;33615;-75
2023/10/03 10:52:49;;;;;;;;;;;;;;;24.59;40.26;100238.34;4455094;32;33348;-76
2023/10/03 10:55:17;;;;;;;9.20;4.07;;;;;;;24.70;39.97;100228.59;4453437;32;33129;-68
2023/10/03 10:57:45;;;;;;;10.82;4.97;;;;;;;24.67;39.96;100229.06;4433093;32;34764;-75
2023/10/03 11:00:22;;;;;;;12.48;4.85;;;;;;;24.67;40.06;100229.88;4482607;31;33633;-75
2023/10/03 11:02:51;;;;;;;11.85;4.82;;;;;;;24.69;40.09;100229.66;4496564;31;33886;-76
2023/10/03 11:05:19;;;;;;;8.82;4.72;;;;;;;24.67;40.03;100221.72;4455623;32;34378;-74
2023/10/03 11:07:50;;;;;;;9.98;4.25;;;;;;;24.69;39.92;100222.31;4478390;32;34660;-77
2023/10/03 11:10:18;;;;;;;7.70;4.35;;;;;;;24.72;39.86;100220.19;4468369;32;33739;-75
2023/10/03 11:13:07;;;;;;;12.00;4.60;;;;;;;24.73;39.85;100213.69;4468312;32;34262;-71
2023/10/03 11:15:36;;;;;;;8.57;3.50;;;;;;;24.72;39.87;100214.75;4459433;32;33896;-76
2023/10/03 11:18:04;;;;;;;10.57;4.50;;;;;;;24.73;39.82;100206.31;4454040;32;34834;-74
2023/10/03 11:20:32;;;;;;;10.00;4.20;;;;;;;24.74;39.74;100196.22;4458231;32;34560;-70
2023/10/03 11:23:01;;;;;;;10.13;4.22;;;;;;;24.82;39.66;100195.94;4460763;32;33363;-75
2023/10/03 11:25:28;;;;;;;8.18;3.83;;;;;;;24.79;39.75;100197.22;4454156;32;32850;-74
2023/10/03 11:28:05;;;;;;;9.38;4.40;;;;;;;24.80;39.70;100198.88;4463439;32;33868;-75
2023/10/03 11:30:33;;;;;;;9.95;3.78;;;;;;;24.84;39.60;100193.81;4435018;32;32912;-76
2023/10/03 11:33:01;;;;;;;7.20;3.53;;;;;;;24.84;39.55;100193.81;4468239;32;34135;-77
2023/10/03 11:35:29;;;;;;;9.38;3.72;;;;;;;24.87;39.43;100191.47;4453922;32;33432;-76
2023/10/03 11:38:06;;;;;;;6.97;3.72;;;;;;;24.87;39.54;100191.47;4464967;32;33908;-76
2023/10/03 11:40:34;;;;;;;8.77;3.95;;;;;;;24.88;39.54;100182.22;4440686;32;32280;-78
2023/10/03 11:43:04;;;;;;;7.22;3.70;;;;;;;24.88;39.61;100184.94;4473131;32;33086;-78
2023/10/03 11:45:33;;;;;;;9.73;4.20;;;;;;;24.86;39.64;100192.53;4468910;32;33934;-77
2023/10/03 11:48:07;;;;;;;10.85;3.75;;;;;;;24.91;39.58;100183.66;4457341;32;33076;-72